Time,TemperatureF,DewpointF,PressureIn,WindDirection,WindDirectionDegrees,WindSpeedMPH,WindSpeedGustMPH,Humidity,HourlyPrecipIn,Conditions,Clouds,dailyrainin,SoftwareType,DateUTC
2013-06-11 00:03:00,66.0,64.0,29.87,SW,214,0.0,2.0,94,0.00,,,0.53,,2013-06-11 04:03:00,
2013-06-11 00:13:00,66.0,64.0,29.87,SW,214,0.0,2.0,94,0.00,,,0.53,,2013-06-11 04:13:00,
2013-06-11 00:23:00,66.0,64.0,29.87,SW,215,0.0,2.0,94,0.00,,,0.53,,2013-06-11 04:23:00,
2013-06-11 00:33:00,66.0,64.0,29.87,SW,215,2.0,6.0,94,0.00,,,0.53,,2013-06-11 04:33:00,
2013-06-11 00:42:00,66.0,64.0,29.87,SW,215,2.0,6.0,94,0.00,,,0.53,,2013-06-11 04:42:00,
2013-06-11 00:53:00,66.0,64.0,29.87,SSW,213,0.0,11.0,94,0.00,,,0.53,,2013-06-11 04:53:00,
2013-06-11 01:02:00,66.0,64.0,29.87,SW,216,0.0,7.0,94,0.00,,,0.53,,2013-06-11 05:02:00,
2013-06-11 01:12:00,66.0,64.0,29.87,SW,216,0.0,7.0,94,0.00,,,0.53,,2013-06-11 05:12:00,
2013-06-11 01:22:00,67.0,65.0,29.88,SSW,208,2.0,8.0,93,0.00,,,0.53,,2013-06-11 05:22:00,
2013-06-11 01:32:00,67.0,65.0,29.88,SSW,213,2.0,10.0,93,0.00,,,0.53,,2013-06-11 05:32:00,
2013-06-11 01:42:00,67.0,65.0,29.88,SSW,213,2.0,10.0,93,0.00,,,0.53,,2013-06-11 05:42:00,
2013-06-11 01:52:00,66.0,64.0,29.88,South,190,1.0,6.0,93,0.00,,,0.53,,2013-06-11 05:52:00,
2013-06-11 02:02:00,66.0,64.0,29.88,SSW,211,3.0,6.0,93,0.00,,,0.53,,2013-06-11 06:02:00,
2013-06-11 02:12:00,66.0,64.0,29.88,SSW,211,3.0,6.0,93,0.00,,,0.53,,2013-06-11 06:12:00,
2013-06-11 02:22:00,66.0,64.0,29.88,SW,214,3.0,10.0,94,0.00,,,0.53,,2013-06-11 06:22:00,
2013-06-11 02:32:00,67.0,65.0,29.88,SW,225,4.0,9.0,93,0.00,,,0.53,,2013-06-11 06:32:00,
2013-06-11 02:42:00,66.0,64.0,29.88,SW,227,1.0,5.0,93,0.00,,,0.53,,2013-06-11 06:42:00,
2013-06-11 02:52:00,66.0,64.0,29.88,SW,227,1.0,5.0,93,0.00,,,0.53,,2013-06-11 06:52:00,
2013-06-11 03:02:00,66.0,64.0,29.88,SW,214,0.0,4.0,93,0.00,,,0.53,,2013-06-11 07:02:00,
2013-06-11 03:13:00,65.0,63.0,29.89,SW,221,2.0,4.0,93,0.00,,,0.53,,2013-06-11 07:13:00,
2013-06-11 03:22:00,65.0,63.0,29.89,SW,221,2.0,4.0,93,0.00,,,0.53,,2013-06-11 07:22:00,
2013-06-11 03:32:00,65.0,63.0,29.89,WSW,238,1.0,5.0,93,0.00,,,0.53,,2013-06-11 07:32:00,
2013-06-11 03:42:00,65.0,63.0,29.89,SW,221,1.0,7.0,93,0.00,,,0.52,,2013-06-11 07:42:00,
2013-06-11 03:52:00,65.0,63.0,29.89,SW,221,1.0,7.0,93,0.00,,,0.52,,2013-06-11 07:52:00,
2013-06-11 04:02:00,65.0,63.0,29.90,SW,219,1.0,9.0,93,0.00,,,0.52,,2013-06-11 08:02:00,
2013-06-11 04:12:00,65.0,63.0,29.90,SW,219,1.0,9.0,93,0.00,,,0.52,,2013-06-11 08:12:00,
2013-06-11 04:22:00,65.0,63.0,29.91,SW,214,3.0,9.0,94,0.00,,,0.52,,2013-06-11 08:22:00,
2013-06-11 04:32:00,65.0,63.0,29.91,SSW,202,3.0,7.0,94,0.00,,,0.52,,2013-06-11 08:32:00,
2013-06-11 04:42:00,65.0,63.0,29.91,SW,225,2.0,8.0,94,0.00,,,0.52,,2013-06-11 08:42:00,
2013-06-11 04:52:00,65.0,63.0,29.91,SW,225,2.0,8.0,94,0.00,,,0.52,,2013-06-11 08:52:00,
2013-06-11 05:02:00,65.0,63.0,29.91,West,279,1.0,6.0,94,0.00,,,0.52,,2013-06-11 09:02:00,
2013-06-11 05:12:00,65.0,63.0,29.91,West,279,1.0,6.0,94,0.00,,,0.52,,2013-06-11 09:12:00,
2013-06-11 05:22:00,64.0,62.0,29.92,WSW,252,4.0,10.0,94,0.00,,,0.52,,2013-06-11 09:22:00,
2013-06-11 05:33:00,64.0,63.0,29.93,West,265,0.0,7.0,95,0.00,,,0.52,,2013-06-11 09:33:00,
2013-06-11 05:43:00,64.0,63.0,29.93,West,261,1.0,5.0,95,0.00,,,0.52,,2013-06-11 09:43:00,
2013-06-11 05:53:00,64.0,63.0,29.93,West,261,1.0,5.0,95,0.00,,,0.52,,2013-06-11 09:53:00,
2013-06-11 06:03:00,64.0,63.0,29.93,WSW,240,1.0,5.0,95,0.00,,,0.52,,2013-06-11 10:03:00,
2013-06-11 06:12:00,64.0,63.0,29.93,WSW,240,1.0,5.0,95,0.00,,,0.52,,2013-06-11 10:12:00,
2013-06-11 06:23:00,64.0,63.0,29.94,SW,233,0.0,4.0,95,0.00,,,0.52,,2013-06-11 10:23:00,
2013-06-11 06:33:00,64.0,63.0,29.94,WSW,258,0.0,0.0,95,0.00,,,0.52,,2013-06-11 10:33:00,
2013-06-11 06:42:00,64.0,63.0,29.94,WSW,258,0.0,0.0,95,0.00,,,0.52,,2013-06-11 10:42:00,
2013-06-11 06:52:00,64.0,63.0,29.95,SW,221,0.0,5.0,95,0.00,,,0.50,,2013-06-11 10:52:00,
2013-06-11 07:02:00,64.0,63.0,29.95,WSW,252,0.0,1.0,95,0.00,,,0.50,,2013-06-11 11:02:00,
2013-06-11 07:12:00,64.0,63.0,29.95,WSW,252,0.0,1.0,95,0.00,,,0.50,,2013-06-11 11:12:00,
2013-06-11 07:22:00,64.0,63.0,29.96,WSW,238,0.0,0.0,95,0.00,,,0.50,,2013-06-11 11:22:00,
2013-06-11 07:32:00,65.0,64.0,29.97,WSW,243,0.0,0.0,95,0.00,,,0.50,,2013-06-11 11:32:00,
2013-06-11 07:42:00,65.0,64.0,29.97,WSW,243,0.0,0.0,95,0.00,,,0.50,,2013-06-11 11:42:00,
2013-06-11 07:52:00,65.0,64.0,29.98,SW,225,0.0,0.0,95,0.00,,,0.47,,2013-06-11 11:52:00,
2013-06-11 08:02:00,65.0,64.0,29.98,WSW,242,1.0,9.0,95,0.00,,,0.47,,2013-06-11 12:02:00,
2013-06-11 08:12:00,66.0,65.0,29.98,WSW,244,0.0,4.0,95,0.00,,,0.47,,2013-06-11 12:12:00,
2013-06-11 08:22:00,66.0,65.0,29.98,WSW,244,0.0,4.0,95,0.00,,,0.47,,2013-06-11 12:22:00,
2013-06-11 08:32:00,66.0,64.0,29.98,SW,228,0.0,3.0,94,0.00,,,0.47,,2013-06-11 12:32:00,
2013-06-11 08:42:00,67.0,65.0,29.98,SW,223,1.0,5.0,94,0.00,,,0.40,,2013-06-11 12:42:00,
2013-06-11 08:52:00,67.0,65.0,29.98,SW,223,1.0,5.0,94,0.00,,,0.40,,2013-06-11 12:52:00,
2013-06-11 09:02:00,67.0,65.0,29.98,WSW,254,0.0,3.0,93,0.00,,,0.40,,2013-06-11 13:02:00,
2013-06-11 09:12:00,67.0,65.0,29.98,WSW,254,0.0,3.0,93,0.00,,,0.40,,2013-06-11 13:12:00,
2013-06-11 09:22:00,68.0,65.0,29.99,WSW,249,3.0,5.0,90,0.00,,,0.40,,2013-06-11 13:22:00,
2013-06-11 09:32:00,69.0,66.0,29.99,West,263,2.0,7.0,90,0.00,,,0.40,,2013-06-11 13:32:00,
2013-06-11 09:42:00,69.0,66.0,29.99,West,263,2.0,7.0,90,0.00,,,0.40,,2013-06-11 13:42:00,
2013-06-11 09:52:00,68.0,64.0,29.99,WSW,246,0.0,9.0,88,0.00,,,0.33,,2013-06-11 13:52:00,
2013-06-11 10:01:00,71.0,66.0,29.99,SSW,201,1.0,5.0,83,0.00,,,0.33,,2013-06-11 14:01:00,
2013-06-11 10:02:00,69.0,66.0,30.00,WSW,251,0.0,3.0,89,0.00,,,0.33,,2013-06-11 14:02:00,
2013-06-11 10:12:00,69.0,66.0,30.00,WSW,251,0.0,3.0,89,0.00,,,0.33,,2013-06-11 14:12:00,
2013-06-11 10:22:00,71.0,66.0,29.99,SSW,201,1.0,5.0,83,0.00,,,0.33,,2013-06-11 14:22:00,
2013-06-11 10:32:00,71.0,66.0,29.99,SSW,201,1.0,5.0,83,0.00,,,0.33,,2013-06-11 14:32:00,
2013-06-11 10:42:00,71.0,66.0,29.99,SSW,201,1.0,5.0,83,0.00,,,0.33,,2013-06-11 14:42:00,
2013-06-11 10:53:00,71.0,66.0,29.99,SSW,201,1.0,5.0,83,0.00,,,0.33,,2013-06-11 14:53:00,